sensor_id;sensor_type;location;lat;lon;timestamp;P1;durP1;ratioP1;P2;durP2;ratioP2
35496;SDS011;21609;49.298;6.844;2022-08-25T00:00:10;3.20;;;3.00;;
35496;SDS011;21609;49.298;6.844;2022-08-25T00:02:36;4.07;;;3.78;;
35496;SDS011;21609;49.298;6.844;2022-08-25T00:05:01;3.83;;;3.58;;
35496;SDS011;21609;49.298;6.844;2022-08-25T00:07:28;3.63;;;3.33;;
35496;SDS011;21609;49.298;6.844;2022-08-25T00:09:55;3.75;;;3.45;;
35496;SDS011;21609;49.298;6.844;2022-08-25T00:12:20;3.17;;;2.97;;
35496;SDS011;21609;49.298;6.844;2022-08-25T00:14:46;3.95;;;3.40;;
35496;SDS011;21609;49.298;6.844;2022-08-25T00:17:11;3.65;;;3.35;;
35496;SDS011;21609;49.298;6.844;2022-08-25T00:19:37;4.15;;;3.42;;
35496;SDS011;21609;49.298;6.844;2022-08-25T00:22:03;3.63;;;3.33;;
35496;SDS011;21609;49.298;6.844;2022-08-25T00:24:29;4.07;;;3.30;;
35496;SDS011;21609;49.298;6.844;2022-08-25T00:26:55;3.80;;;3.47;;
35496;SDS011;21609;49.298;6.844;2022-08-25T00:29:23;3.10;;;2.90;;
35496;SDS011;21609;49.298;6.844;2022-08-25T00:31:50;3.67;;;3.38;;
35496;SDS011;21609;49.298;6.844;2022-08-25T00:34:19;3.75;;;3.55;;
35496;SDS011;21609;49.298;6.844;2022-08-25T00:39:16;3.38;;;3.08;;
35496;SDS011;21609;49.298;6.844;2022-08-25T00:41:45;3.47;;;3.25;;
35496;SDS011;21609;49.298;6.844;2022-08-25T00:44:12;3.78;;;3.47;;
35496;SDS011;21609;49.298;6.844;2022-08-25T00:46:52;3.63;;;3.33;;
35496;SDS011;21609;49.298;6.844;2022-08-25T00:54:21;3.50;;;3.30;;
35496;SDS011;21609;49.298;6.844;2022-08-25T00:56:51;3.33;;;3.03;;
35496;SDS011;21609;49.298;6.844;2022-08-25T00:59:18;3.70;;;3.40;;
35496;SDS011;21609;49.298;6.844;2022-08-25T01:01:45;3.53;;;3.22;;
35496;SDS011;21609;49.298;6.844;2022-08-25T01:04:11;3.55;;;3.35;;
35496;SDS011;21609;49.298;6.844;2022-08-25T01:06:38;3.70;;;3.38;;
35496;SDS011;21609;49.298;6.844;2022-08-25T01:09:07;3.90;;;3.20;;
35496;SDS011;21609;49.298;6.844;2022-08-25T01:11:33;4.45;;;3.50;;
35496;SDS011;21609;49.298;6.844;2022-08-25T01:13:59;3.35;;;2.95;;
35496;SDS011;21609;49.298;6.844;2022-08-25T01:16:30;4.03;;;3.42;;
35496;SDS011;21609;49.298;6.844;2022-08-25T01:19:00;3.90;;;3.60;;
35496;SDS011;21609;49.298;6.844;2022-08-25T01:21:28;3.45;;;3.25;;
35496;SDS011;21609;49.298;6.844;2022-08-25T01:23:56;4.43;;;3.65;;
35496;SDS011;21609;49.298;6.844;2022-08-25T01:26:24;4.68;;;3.63;;
35496;SDS011;21609;49.298;6.844;2022-08-25T01:28:55;3.80;;;3.40;;
35496;SDS011;21609;49.298;6.844;2022-08-25T01:31:41;3.70;;;3.20;;
35496;SDS011;21609;49.298;6.844;2022-08-25T01:34:07;4.10;;;3.58;;
35496;SDS011;21609;49.298;6.844;2022-08-25T01:36:33;3.78;;;3.47;;
35496;SDS011;21609;49.298;6.844;2022-08-25T01:38:59;3.40;;;3.20;;
35496;SDS011;21609;49.298;6.844;2022-08-25T01:43:54;3.58;;;3.28;;
35496;SDS011;21609;49.298;6.844;2022-08-25T01:46:20;3.83;;;3.53;;
35496;SDS011;21609;49.298;6.844;2022-08-25T01:48:45;3.10;;;2.90;;
35496;SDS011;21609;49.298;6.844;2022-08-25T01:51:13;3.50;;;3.30;;
35496;SDS011;21609;49.298;6.844;2022-08-25T01:53:39;3.55;;;3.25;;
35496;SDS011;21609;49.298;6.844;2022-08-25T01:56:12;4.50;;;3.50;;
35496;SDS011;21609;49.298;6.844;2022-08-25T01:58:43;3.92;;;3.60;;
35496;SDS011;21609;49.298;6.844;2022-08-25T02:01:12;4.00;;;3.70;;
35496;SDS011;21609;49.298;6.844;2022-08-25T02:03:41;3.60;;;3.40;;
35496;SDS011;21609;49.298;6.844;2022-08-25T02:06:12;3.45;;;3.25;;
35496;SDS011;21609;49.298;6.844;2022-08-25T02:08:40;3.63;;;3.33;;
35496;SDS011;21609;49.298;6.844;2022-08-25T02:11:09;3.45;;;3.25;;
35496;SDS011;21609;49.298;6.844;2022-08-25T02:13:36;3.85;;;3.55;;
35496;SDS011;21609;49.298;6.844;2022-08-25T02:16:02;3.80;;;3.38;;
35496;SDS011;21609;49.298;6.844;2022-08-25T02:18:28;3.63;;;3.42;;
35496;SDS011;21609;49.298;6.844;2022-08-25T02:20:54;3.47;;;3.22;;
35496;SDS011;21609;49.298;6.844;2022-08-25T02:23:19;3.40;;;3.10;;
35496;SDS011;21609;49.298;6.844;2022-08-25T02:25:45;4.38;;;3.33;;
35496;SDS011;21609;49.298;6.844;2022-08-25T02:28:11;3.58;;;3.28;;
35496;SDS011;21609;49.298;6.844;2022-08-25T02:30:37;3.80;;;3.45;;
35496;SDS011;21609;49.298;6.844;2022-08-25T02:33:05;3.75;;;3.47;;
35496;SDS011;21609;49.298;6.844;2022-08-25T02:35:30;3.55;;;3.35;;
35496;SDS011;21609;49.298;6.844;2022-08-25T02:37:56;3.65;;;3.33;;
35496;SDS011;21609;49.298;6.844;2022-08-25T02:40:21;3.40;;;3.20;;
35496;SDS011;21609;49.298;6.844;2022-08-25T02:42:48;3.40;;;3.20;;
35496;SDS011;21609;49.298;6.844;2022-08-25T02:45:15;3.70;;;3.50;;
35496;SDS011;21609;49.298;6.844;2022-08-25T02:47:42;4.32;;;3.95;;
35496;SDS011;21609;49.298;6.844;2022-08-25T02:50:08;3.58;;;3.38;;
35496;SDS011;21609;49.298;6.844;2022-08-25T02:52:35;3.10;;;2.90;;
35496;SDS011;21609;49.298;6.844;2022-08-25T02:55:03;4.32;;;3.92;;
35496;SDS011;21609;49.298;6.844;2022-08-25T02:57:31;3.30;;;2.97;;
35496;SDS011;21609;49.298;6.844;2022-08-25T02:59:56;3.55;;;3.25;;
35496;SDS011;21609;49.298;6.844;2022-08-25T03:02:22;3.58;;;3.28;;
35496;SDS011;21609;49.298;6.844;2022-08-25T03:04:49;3.35;;;3.15;;
35496;SDS011;21609;49.298;6.844;2022-08-25T03:07:16;3.92;;;3.63;;
35496;SDS011;21609;49.298;6.844;2022-08-25T03:09:42;4.97;;;3.60;;
35496;SDS011;21609;49.298;6.844;2022-08-25T03:12:08;3.33;;;3.13;;
35496;SDS011;21609;49.298;6.844;2022-08-25T03:14:35;3.97;;;3.67;;
35496;SDS011;21609;49.298;6.844;2022-08-25T03:17:01;3.60;;;3.40;;
35496;SDS011;21609;49.298;6.844;2022-08-25T03:19:27;3.70;;;3.40;;
35496;SDS011;21609;49.298;6.844;2022-08-25T03:21:52;4.32;;;3.55;;
35496;SDS011;21609;49.298;6.844;2022-08-25T03:24:20;3.33;;;3.00;;
35496;SDS011;21609;49.298;6.844;2022-08-25T03:26:46;3.42;;;3.22;;
35496;SDS011;21609;49.298;6.844;2022-08-25T03:29:19;3.47;;;3.28;;
35496;SDS011;21609;49.298;6.844;2022-08-25T03:31:45;3.53;;;3.22;;
35496;SDS011;21609;49.298;6.844;2022-08-25T03:34:11;4.30;;;3.80;;
35496;SDS011;21609;49.298;6.844;2022-08-25T03:36:40;4.00;;;3.50;;
35496;SDS011;21609;49.298;6.844;2022-08-25T03:39:06;3.65;;;3.35;;
35496;SDS011;21609;49.298;6.844;2022-08-25T03:41:32;3.65;;;3.35;;
35496;SDS011;21609;49.298;6.844;2022-08-25T03:43:58;3.25;;;3.05;;
35496;SDS011;21609;49.298;6.844;2022-08-25T03:46:27;3.47;;;3.10;;
35496;SDS011;21609;49.298;6.844;2022-08-25T03:48:55;3.92;;;3.42;;
35496;SDS011;21609;49.298;6.844;2022-08-25T03:51:22;4.22;;;3.85;;
35496;SDS011;21609;49.298;6.844;2022-08-25T03:53:54;3.78;;;3.58;;
35496;SDS011;21609;49.298;6.844;2022-08-25T03:56:21;3.53;;;3.33;;
35496;SDS011;21609;49.298;6.844;2022-08-25T03:58:46;3.92;;;3.63;;
35496;SDS011;21609;49.298;6.844;2022-08-25T04:01:12;4.05;;;3.20;;
35496;SDS011;21609;49.298;6.844;2022-08-25T04:03:39;3.22;;;2.95;;
35496;SDS011;21609;49.298;6.844;2022-08-25T04:06:05;3.75;;;3.55;;
35496;SDS011;21609;49.298;6.844;2022-08-25T04:08:31;3.45;;;3.25;;
35496;SDS011;21609;49.298;6.844;2022-08-25T04:10:57;3.50;;;3.25;;
35496;SDS011;21609;49.298;6.844;2022-08-25T04:13:23;3.88;;;3.58;;
35496;SDS011;21609;49.298;6.844;2022-08-25T04:15:49;4.03;;;3.72;;
35496;SDS011;21609;49.298;6.844;2022-08-25T04:18:15;3.35;;;3.15;;
35496;SDS011;21609;49.298;6.844;2022-08-25T04:20:41;3.95;;;3.65;;
35496;SDS011;21609;49.298;6.844;2022-08-25T04:23:07;3.65;;;3.35;;
35496;SDS011;21609;49.298;6.844;2022-08-25T04:25:34;4.03;;;3.72;;
35496;SDS011;21609;49.298;6.844;2022-08-25T04:28:06;3.40;;;3.20;;
35496;SDS011;21609;49.298;6.844;2022-08-25T04:30:32;4.88;;;2.88;;
35496;SDS011;21609;49.298;6.844;2022-08-25T04:32:58;3.53;;;3.30;;
35496;SDS011;21609;49.298;6.844;2022-08-25T04:35:24;3.38;;;3.17;;
35496;SDS011;21609;49.298;6.844;2022-08-25T04:37:50;3.08;;;2.88;;
35496;SDS011;21609;49.298;6.844;2022-08-25T04:40:15;3.33;;;3.13;;
35496;SDS011;21609;49.298;6.844;2022-08-25T04:42:41;2.92;;;2.72;;
35496;SDS011;21609;49.298;6.844;2022-08-25T04:45:08;3.53;;;3.05;;
35496;SDS011;21609;49.298;6.844;2022-08-25T04:47:37;3.55;;;3.35;;
35496;SDS011;21609;49.298;6.844;2022-08-25T04:50:04;3.20;;;3.00;;
35496;SDS011;21609;49.298;6.844;2022-08-25T04:52:30;3.42;;;3.20;;
35496;SDS011;21609;49.298;6.844;2022-08-25T04:54:56;3.30;;;3.10;;
35496;SDS011;21609;49.298;6.844;2022-08-25T04:57:21;3.45;;;3.25;;
35496;SDS011;21609;49.298;6.844;2022-08-25T04:59:47;3.45;;;3.25;;
35496;SDS011;21609;49.298;6.844;2022-08-25T05:02:13;3.65;;;3.35;;
35496;SDS011;21609;49.298;6.844;2022-08-25T05:04:39;3.53;;;3.22;;
35496;SDS011;21609;49.298;6.844;2022-08-25T05:07:05;2.97;;;2.65;;
35496;SDS011;21609;49.298;6.844;2022-08-25T05:09:31;3.03;;;2.83;;
35496;SDS011;21609;49.298;6.844;2022-08-25T05:11:57;3.50;;;3.20;;
35496;SDS011;21609;49.298;6.844;2022-08-25T05:14:22;3.28;;;3.08;;
35496;SDS011;21609;49.298;6.844;2022-08-25T05:16:49;3.45;;;3.15;;
35496;SDS011;21609;49.298;6.844;2022-08-25T05:19:15;3.70;;;3.45;;
35496;SDS011;21609;49.298;6.844;2022-08-25T05:21:40;3.40;;;3.20;;
35496;SDS011;21609;49.298;6.844;2022-08-25T05:24:06;3.42;;;3.13;;
35496;SDS011;21609;49.298;6.844;2022-08-25T05:26:33;3.75;;;3.45;;
35496;SDS011;21609;49.298;6.844;2022-08-25T05:29:00;3.30;;;3.10;;
35496;SDS011;21609;49.298;6.844;2022-08-25T05:31:28;4.47;;;3.20;;
35496;SDS011;21609;49.298;6.844;2022-08-25T05:33:55;3.40;;;3.20;;
35496;SDS011;21609;49.298;6.844;2022-08-25T05:36:21;3.83;;;3.53;;
35496;SDS011;21609;49.298;6.844;2022-08-25T05:38:48;3.97;;;3.67;;
35496;SDS011;21609;49.298;6.844;2022-08-25T05:41:18;5.13;;;3.47;;
35496;SDS011;21609;49.298;6.844;2022-08-25T05:43:46;3.75;;;3.45;;
35496;SDS011;21609;49.298;6.844;2022-08-25T05:46:13;3.78;;;3.30;;
35496;SDS011;21609;49.298;6.844;2022-08-25T05:48:40;5.07;;;3.35;;
35496;SDS011;21609;49.298;6.844;2022-08-25T05:51:06;3.20;;;3.00;;
35496;SDS011;21609;49.298;6.844;2022-08-25T05:53:34;4.07;;;3.08;;
35496;SDS011;21609;49.298;6.844;2022-08-25T05:56:00;3.72;;;3.40;;
35496;SDS011;21609;49.298;6.844;2022-08-25T05:58:27;3.85;;;3.20;;
35496;SDS011;21609;49.298;6.844;2022-08-25T06:00:54;3.08;;;2.88;;
35496;SDS011;21609;49.298;6.844;2022-08-25T06:03:20;5.22;;;2.80;;
35496;SDS011;21609;49.298;6.844;2022-08-25T06:05:46;3.92;;;3.25;;
35496;SDS011;21609;49.298;6.844;2022-08-25T06:08:12;4.13;;;3.22;;
35496;SDS011;21609;49.298;6.844;2022-08-25T06:10:38;3.13;;;2.92;;
35496;SDS011;21609;49.298;6.844;2022-08-25T06:13:03;3.45;;;3.17;;
35496;SDS011;21609;49.298;6.844;2022-08-25T06:15:30;3.80;;;3.50;;
35496;SDS011;21609;49.298;6.844;2022-08-25T06:17:58;5.22;;;4.38;;
35496;SDS011;21609;49.298;6.844;2022-08-25T06:20:27;5.32;;;3.80;;
35496;SDS011;21609;49.298;6.844;2022-08-25T06:22:54;4.30;;;4.00;;
35496;SDS011;21609;49.298;6.844;2022-08-25T06:25:22;4.00;;;3.70;;
35496;SDS011;21609;49.298;6.844;2022-08-25T06:27:49;5.20;;;4.03;;
35496;SDS011;21609;49.298;6.844;2022-08-25T06:30:16;4.85;;;3.90;;
35496;SDS011;21609;49.298;6.844;2022-08-25T06:32:45;5.50;;;4.13;;
35496;SDS011;21609;49.298;6.844;2022-08-25T06:35:12;4.05;;;3.75;;
35496;SDS011;21609;49.298;6.844;2022-08-25T06:37:40;3.72;;;3.40;;
35496;SDS011;21609;49.298;6.844;2022-08-25T06:40:06;4.22;;;3.15;;
35496;SDS011;21609;49.298;6.844;2022-08-25T06:42:34;4.53;;;3.60;;
35496;SDS011;21609;49.298;6.844;2022-08-25T06:45:00;6.05;;;3.53;;
35496;SDS011;21609;49.298;6.844;2022-08-25T06:47:26;6.40;;;3.72;;
35496;SDS011;21609;49.298;6.844;2022-08-25T06:49:52;3.47;;;3.15;;
35496;SDS011;21609;49.298;6.844;2022-08-25T06:52:18;3.05;;;2.83;;
35496;SDS011;21609;49.298;6.844;2022-08-25T06:54:43;3.20;;;2.63;;
35496;SDS011;21609;49.298;6.844;2022-08-25T06:57:09;4.30;;;3.30;;
35496;SDS011;21609;49.298;6.844;2022-08-25T06:59:35;2.65;;;2.45;;
35496;SDS011;21609;49.298;6.844;2022-08-25T07:02:03;3.25;;;2.95;;
35496;SDS011;21609;49.298;6.844;2022-08-25T07:04:30;3.88;;;2.78;;
35496;SDS011;21609;49.298;6.844;2022-08-25T07:06:56;5.40;;;3.20;;
35496;SDS011;21609;49.298;6.844;2022-08-25T07:09:22;2.90;;;2.70;;
35496;SDS011;21609;49.298;6.844;2022-08-25T07:11:47;3.90;;;3.05;;
35496;SDS011;21609;49.298;6.844;2022-08-25T07:14:14;3.72;;;2.88;;
35496;SDS011;21609;49.298;6.844;2022-08-25T07:16:41;3.00;;;2.80;;
35496;SDS011;21609;49.298;6.844;2022-08-25T07:19:07;2.75;;;2.55;;
35496;SDS011;21609;49.298;6.844;2022-08-25T07:21:34;2.65;;;2.47;;
35496;SDS011;21609;49.298;6.844;2022-08-25T07:24:06;3.33;;;2.88;;
35496;SDS011;21609;49.298;6.844;2022-08-25T07:26:36;3.00;;;2.72;;
35496;SDS011;21609;49.298;6.844;2022-08-25T07:29:06;3.35;;;3.05;;
35496;SDS011;21609;49.298;6.844;2022-08-25T07:31:34;4.57;;;3.60;;
35496;SDS011;21609;49.298;6.844;2022-08-25T07:33:59;3.03;;;2.70;;
35496;SDS011;21609;49.298;6.844;2022-08-25T07:36:44;2.78;;;2.58;;
35496;SDS011;21609;49.298;6.844;2022-08-25T07:39:09;3.90;;;2.65;;
35496;SDS011;21609;49.298;6.844;2022-08-25T07:41:36;4.22;;;2.65;;
35496;SDS011;21609;49.298;6.844;2022-08-25T07:44:04;2.78;;;2.58;;
35496;SDS011;21609;49.298;6.844;2022-08-25T07:46:30;4.53;;;3.05;;
35496;SDS011;21609;49.298;6.844;2022-08-25T07:48:56;2.42;;;2.20;;
35496;SDS011;21609;49.298;6.844;2022-08-25T07:51:21;3.17;;;2.88;;
35496;SDS011;21609;49.298;6.844;2022-08-25T07:53:47;3.80;;;2.50;;
35496;SDS011;21609;49.298;6.844;2022-08-25T07:56:13;3.55;;;2.90;;
35496;SDS011;21609;49.298;6.844;2022-08-25T07:58:41;5.13;;;2.30;;
35496;SDS011;21609;49.298;6.844;2022-08-25T08:01:14;3.03;;;2.75;;
35496;SDS011;21609;49.298;6.844;2022-08-25T08:03:42;3.78;;;2.88;;
35496;SDS011;21609;49.298;6.844;2022-08-25T08:06:08;3.08;;;2.80;;
35496;SDS011;21609;49.298;6.844;2022-08-25T08:08:36;3.15;;;2.95;;
35496;SDS011;21609;49.298;6.844;2022-08-25T08:11:03;2.75;;;2.55;;
35496;SDS011;21609;49.298;6.844;2022-08-25T08:13:29;2.75;;;2.55;;
35496;SDS011;21609;49.298;6.844;2022-08-25T08:15:54;4.00;;;3.03;;
35496;SDS011;21609;49.298;6.844;2022-08-25T08:18:20;4.68;;;2.92;;
35496;SDS011;21609;49.298;6.844;2022-08-25T08:20:46;4.78;;;2.90;;
35496;SDS011;21609;49.298;6.844;2022-08-25T08:23:12;3.75;;;2.85;;
35496;SDS011;21609;49.298;6.844;2022-08-25T08:25:38;3.42;;;2.97;;
35496;SDS011;21609;49.298;6.844;2022-08-25T08:28:04;2.75;;;2.55;;
35496;SDS011;21609;49.298;6.844;2022-08-25T08:30:30;3.17;;;2.92;;
35496;SDS011;21609;49.298;6.844;2022-08-25T08:32:56;4.75;;;3.33;;
35496;SDS011;21609;49.298;6.844;2022-08-25T08:35:21;2.85;;;2.65;;
35496;SDS011;21609;49.298;6.844;2022-08-25T08:37:47;3.13;;;2.35;;
35496;SDS011;21609;49.298;6.844;2022-08-25T08:40:17;3.35;;;3.05;;
35496;SDS011;21609;49.298;6.844;2022-08-25T08:45:24;3.75;;;2.83;;
35496;SDS011;21609;49.298;6.844;2022-08-25T08:50:47;2.80;;;2.53;;
35496;SDS011;21609;49.298;6.844;2022-08-25T08:56:21;4.32;;;2.72;;
35496;SDS011;21609;49.298;6.844;2022-08-25T08:59:04;2.65;;;2.42;;
35496;SDS011;21609;49.298;6.844;2022-08-25T09:01:38;2.85;;;2.65;;
35496;SDS011;21609;49.298;6.844;2022-08-25T09:04:13;3.47;;;3.10;;
35496;SDS011;21609;49.298;6.844;2022-08-25T09:06:45;2.92;;;2.40;;
35496;SDS011;21609;49.298;6.844;2022-08-25T09:09:13;3.20;;;2.83;;
35496;SDS011;21609;49.298;6.844;2022-08-25T09:12:02;2.72;;;2.53;;
35496;SDS011;21609;49.298;6.844;2022-08-25T09:15:02;2.67;;;2.47;;
35496;SDS011;21609;49.298;6.844;2022-08-25T09:22:55;2.80;;;2.60;;
35496;SDS011;21609;49.298;6.844;2022-08-25T09:25:34;4.90;;;2.80;;
35496;SDS011;21609;49.298;6.844;2022-08-25T09:31:01;3.13;;;2.55;;
35496;SDS011;21609;49.298;6.844;2022-08-25T09:33:33;3.30;;;2.60;;
35496;SDS011;21609;49.298;6.844;2022-08-25T09:35:59;2.78;;;2.58;;
35496;SDS011;21609;49.298;6.844;2022-08-25T09:38:25;2.80;;;2.60;;
35496;SDS011;21609;49.298;6.844;2022-08-25T09:40:54;2.67;;;2.40;;
35496;SDS011;21609;49.298;6.844;2022-08-25T09:43:28;2.30;;;2.20;;
35496;SDS011;21609;49.298;6.844;2022-08-25T09:46:16;2.53;;;2.33;;
35496;SDS011;21609;49.298;6.844;2022-08-25T09:48:51;2.42;;;2.30;;
35496;SDS011;21609;49.298;6.844;2022-08-25T09:51:24;4.43;;;2.55;;
35496;SDS011;21609;49.298;6.844;2022-08-25T09:56:23;2.88;;;2.67;;
35496;SDS011;21609;49.298;6.844;2022-08-25T09:58:51;3.10;;;2.47;;
35496;SDS011;21609;49.298;6.844;2022-08-25T10:01:19;2.60;;;2.40;;
35496;SDS011;21609;49.298;6.844;2022-08-25T10:04:00;2.25;;;2.15;;
35496;SDS011;21609;49.298;6.844;2022-08-25T10:06:44;2.60;;;1.98;;
35496;SDS011;21609;49.298;6.844;2022-08-25T10:09:13;2.72;;;2.53;;
35496;SDS011;21609;49.298;6.844;2022-08-25T10:12:17;2.60;;;2.40;;
35496;SDS011;21609;49.298;6.844;2022-08-25T10:15:25;3.15;;;2.53;;
35496;SDS011;21609;49.298;6.844;2022-08-25T10:17:53;3.33;;;2.53;;
35496;SDS011;21609;49.298;6.844;2022-08-25T10:20:24;2.38;;;2.17;;
35496;SDS011;21609;49.298;6.844;2022-08-25T10:22:54;5.93;;;3.15;;
35496;SDS011;21609;49.298;6.844;2022-08-25T10:25:34;2.55;;;2.35;;
35496;SDS011;21609;49.298;6.844;2022-08-25T10:31:23;4.80;;;2.38;;
35496;SDS011;21609;49.298;6.844;2022-08-25T10:34:00;3.83;;;2.60;;
35496;SDS011;21609;49.298;6.844;2022-08-25T10:39:26;2.70;;;2.50;;
35496;SDS011;21609;49.298;6.844;2022-08-25T10:44:33;4.47;;;2.63;;
35496;SDS011;21609;49.298;6.844;2022-08-25T10:47:42;3.45;;;2.53;;
35496;SDS011;21609;49.298;6.844;2022-08-25T10:56:28;4.13;;;2.70;;
35496;SDS011;21609;49.298;6.844;2022-08-25T11:02:24;3.05;;;2.60;;
35496;SDS011;21609;49.298;6.844;2022-08-25T11:05:11;3.30;;;2.72;;
35496;SDS011;21609;49.298;6.844;2022-08-25T11:08:04;2.70;;;2.50;;
35496;SDS011;21609;49.298;6.844;2022-08-25T11:10:39;3.97;;;2.38;;
35496;SDS011;21609;49.298;6.844;2022-08-25T11:13:12;3.45;;;2.40;;
35496;SDS011;21609;49.298;6.844;2022-08-25T11:16:01;3.30;;;2.58;;
35496;SDS011;21609;49.298;6.844;2022-08-25T11:18:43;6.97;;;2.90;;
35496;SDS011;21609;49.298;6.844;2022-08-25T11:26:43;2.92;;;2.72;;
35496;SDS011;21609;49.298;6.844;2022-08-25T11:29:17;3.15;;;2.85;;
35496;SDS011;21609;49.298;6.844;2022-08-25T11:31:46;3.28;;;2.65;;
35496;SDS011;21609;49.298;6.844;2022-08-25T11:34:15;2.83;;;2.63;;
35496;SDS011;21609;49.298;6.844;2022-08-25T11:36:48;4.60;;;2.80;;
35496;SDS011;21609;49.298;6.844;2022-08-25T11:39:15;2.92;;;2.72;;
35496;SDS011;21609;49.298;6.844;2022-08-25T11:42:12;3.40;;;3.10;;
35496;SDS011;21609;49.298;6.844;2022-08-25T11:52:59;2.88;;;2.65;;
35496;SDS011;21609;49.298;6.844;2022-08-25T11:55:48;4.18;;;2.40;;
35496;SDS011;21609;49.298;6.844;2022-08-25T12:00:42;3.78;;;2.67;;
35496;SDS011;21609;49.298;6.844;2022-08-25T12:06:25;2.65;;;2.45;;
35496;SDS011;21609;49.298;6.844;2022-08-25T12:14:31;3.42;;;2.95;;
35496;SDS011;21609;49.298;6.844;2022-08-25T12:17:26;2.67;;;2.47;;
35496;SDS011;21609;49.298;6.844;2022-08-25T12:20:00;2.85;;;2.60;;
35496;SDS011;21609;49.298;6.844;2022-08-25T12:24:59;3.13;;;2.88;;
35496;SDS011;21609;49.298;6.844;2022-08-25T12:27:39;2.78;;;2.45;;
35496;SDS011;21609;49.298;6.844;2022-08-25T12:33:38;3.10;;;2.88;;
35496;SDS011;21609;49.298;6.844;2022-08-25T12:36:29;3.05;;;2.75;;
35496;SDS011;21609;49.298;6.844;2022-08-25T12:41:53;3.17;;;2.83;;
35496;SDS011;21609;49.298;6.844;2022-08-25T12:47:12;3.10;;;2.90;;
35496;SDS011;21609;49.298;6.844;2022-08-25T12:49:44;2.80;;;2.60;;
35496;SDS011;21609;49.298;6.844;2022-08-25T12:54:47;3.28;;;3.08;;
35496;SDS011;21609;49.298;6.844;2022-08-25T13:00:11;3.80;;;3.10;;
35496;SDS011;21609;49.298;6.844;2022-08-25T13:02:56;4.15;;;2.85;;
35496;SDS011;21609;49.298;6.844;2022-08-25T13:06:14;3.15;;;2.67;;
35496;SDS011;21609;49.298;6.844;2022-08-25T13:11:37;2.92;;;2.72;;
35496;SDS011;21609;49.298;6.844;2022-08-25T13:14:17;3.20;;;2.88;;
35496;SDS011;21609;49.298;6.844;2022-08-25T13:16:55;2.72;;;2.53;;
35496;SDS011;21609;49.298;6.844;2022-08-25T13:19:22;3.80;;;2.70;;
35496;SDS011;21609;49.298;6.844;2022-08-25T13:21:49;7.28;;;2.80;;
35496;SDS011;21609;49.298;6.844;2022-08-25T13:24:26;3.08;;;2.88;;
35496;SDS011;21609;49.298;6.844;2022-08-25T13:26:56;2.83;;;2.63;;
35496;SDS011;21609;49.298;6.844;2022-08-25T13:29:26;2.60;;;2.40;;
35496;SDS011;21609;49.298;6.844;2022-08-25T13:34:23;3.08;;;2.80;;
35496;SDS011;21609;49.298;6.844;2022-08-25T13:36:51;7.53;;;3.03;;
35496;SDS011;21609;49.298;6.844;2022-08-25T13:39:36;2.90;;;2.67;;
35496;SDS011;21609;49.298;6.844;2022-08-25T13:42:04;4.72;;;3.10;;
35496;SDS011;21609;49.298;6.844;2022-08-25T13:44:36;3.20;;;2.95;;
35496;SDS011;21609;49.298;6.844;2022-08-25T13:47:13;2.92;;;2.72;;
35496;SDS011;21609;49.298;6.844;2022-08-25T13:49:41;3.03;;;2.83;;
35496;SDS011;21609;49.298;6.844;2022-08-25T13:52:14;3.42;;;2.42;;
35496;SDS011;21609;49.298;6.844;2022-08-25T13:54:56;2.80;;;2.60;;
35496;SDS011;21609;49.298;6.844;2022-08-25T13:57:24;2.20;;;2.10;;
35496;SDS011;21609;49.298;6.844;2022-08-25T13:59:53;2.72;;;2.53;;
35496;SDS011;21609;49.298;6.844;2022-08-25T14:05:07;2.85;;;2.65;;
35496;SDS011;21609;49.298;6.844;2022-08-25T14:07:34;2.70;;;2.50;;
35496;SDS011;21609;49.298;6.844;2022-08-25T14:10:09;3.15;;;2.85;;
35496;SDS011;21609;49.298;6.844;2022-08-25T14:15:52;2.80;;;2.60;;
35496;SDS011;21609;49.298;6.844;2022-08-25T14:18:24;2.33;;;2.22;;
35496;SDS011;21609;49.298;6.844;2022-08-25T14:20:55;2.60;;;2.40;;
35496;SDS011;21609;49.298;6.844;2022-08-25T14:23:23;2.80;;;2.60;;
35496;SDS011;21609;49.298;6.844;2022-08-25T14:25:52;3.80;;;3.20;;
35496;SDS011;21609;49.298;6.844;2022-08-25T14:28:20;3.08;;;2.78;;
35496;SDS011;21609;49.298;6.844;2022-08-25T14:30:52;5.45;;;2.65;;
35496;SDS011;21609;49.298;6.844;2022-08-25T14:33:21;2.38;;;2.17;;
35496;SDS011;21609;49.298;6.844;2022-08-25T14:35:51;3.13;;;2.60;;
35496;SDS011;21609;49.298;6.844;2022-08-25T14:38:18;3.20;;;2.90;;
35496;SDS011;21609;49.298;6.844;2022-08-25T14:40:44;3.45;;;2.53;;
35496;SDS011;21609;49.298;6.844;2022-08-25T14:43:11;3.30;;;3.00;;
35496;SDS011;21609;49.298;6.844;2022-08-25T14:45:38;4.28;;;2.70;;
35496;SDS011;21609;49.298;6.844;2022-08-25T14:48:09;3.30;;;2.65;;
35496;SDS011;21609;49.298;6.844;2022-08-25T14:50:41;5.47;;;2.78;;
35496;SDS011;21609;49.298;6.844;2022-08-25T14:53:06;7.88;;;2.35;;
35496;SDS011;21609;49.298;6.844;2022-08-25T14:55:33;2.83;;;2.63;;
35496;SDS011;21609;49.298;6.844;2022-08-25T14:57:59;2.88;;;2.40;;
35496;SDS011;21609;49.298;6.844;2022-08-25T15:00:25;2.90;;;2.70;;
35496;SDS011;21609;49.298;6.844;2022-08-25T15:02:51;3.38;;;2.83;;
35496;SDS011;21609;49.298;6.844;2022-08-25T15:05:19;4.28;;;2.97;;
35496;SDS011;21609;49.298;6.844;2022-08-25T15:07:48;4.97;;;3.20;;
35496;SDS011;21609;49.298;6.844;2022-08-25T15:10:33;5.00;;;2.63;;
35496;SDS011;21609;49.298;6.844;2022-08-25T15:12:59;3.67;;;2.90;;
35496;SDS011;21609;49.298;6.844;2022-08-25T15:15:24;3.15;;;2.83;;
35496;SDS011;21609;49.298;6.844;2022-08-25T15:17:52;4.88;;;3.13;;
35496;SDS011;21609;49.298;6.844;2022-08-25T15:20:18;2.78;;;2.58;;
35496;SDS011;21609;49.298;6.844;2022-08-25T15:22:44;4.88;;;3.20;;
35496;SDS011;21609;49.298;6.844;2022-08-25T15:25:11;3.40;;;2.97;;
35496;SDS011;21609;49.298;6.844;2022-08-25T15:27:37;2.60;;;2.40;;
35496;SDS011;21609;49.298;6.844;2022-08-25T15:30:03;4.25;;;2.80;;
35496;SDS011;21609;49.298;6.844;2022-08-25T15:32:29;3.15;;;2.70;;
35496;SDS011;21609;49.298;6.844;2022-08-25T15:34:54;4.78;;;3.03;;
35496;SDS011;21609;49.298;6.844;2022-08-25T15:37:20;2.40;;;2.20;;
35496;SDS011;21609;49.298;6.844;2022-08-25T15:39:45;3.00;;;2.60;;
35496;SDS011;21609;49.298;6.844;2022-08-25T15:42:12;2.78;;;2.58;;
35496;SDS011;21609;49.298;6.844;2022-08-25T15:44:39;2.50;;;2.30;;
35496;SDS011;21609;49.298;6.844;2022-08-25T15:47:05;4.53;;;2.80;;
35496;SDS011;21609;49.298;6.844;2022-08-25T15:49:31;3.55;;;2.90;;
35496;SDS011;21609;49.298;6.844;2022-08-25T15:51:57;7.63;;;2.53;;
35496;SDS011;21609;49.298;6.844;2022-08-25T15:54:24;3.20;;;2.88;;
35496;SDS011;21609;49.298;6.844;2022-08-25T15:56:50;3.03;;;2.83;;
35496;SDS011;21609;49.298;6.844;2022-08-25T15:59:16;4.30;;;3.00;;
35496;SDS011;21609;49.298;6.844;2022-08-25T16:01:42;2.97;;;2.78;;
35496;SDS011;21609;49.298;6.844;2022-08-25T16:04:12;5.23;;;2.43;;
35496;SDS011;21609;49.298;6.844;2022-08-25T16:06:38;4.60;;;2.50;;
35496;SDS011;21609;49.298;6.844;2022-08-25T16:09:06;3.08;;;2.78;;
35496;SDS011;21609;49.298;6.844;2022-08-25T16:11:31;2.70;;;2.40;;
35496;SDS011;21609;49.298;6.844;2022-08-25T16:13:58;2.90;;;2.70;;
35496;SDS011;21609;49.298;6.844;2022-08-25T16:16:25;2.70;;;2.50;;
35496;SDS011;21609;49.298;6.844;2022-08-25T16:18:53;2.70;;;2.53;;
35496;SDS011;21609;49.298;6.844;2022-08-25T16:21:20;5.90;;;3.13;;
35496;SDS011;21609;49.298;6.844;2022-08-25T16:23:54;2.72;;;2.50;;
35496;SDS011;21609;49.298;6.844;2022-08-25T16:26:21;2.63;;;2.42;;
35496;SDS011;21609;49.298;6.844;2022-08-25T16:28:47;3.30;;;3.00;;
35496;SDS011;21609;49.298;6.844;2022-08-25T16:31:14;3.38;;;2.85;;
35496;SDS011;21609;49.298;6.844;2022-08-25T16:33:40;4.43;;;2.63;;
35496;SDS011;21609;49.298;6.844;2022-08-25T16:36:08;2.70;;;2.50;;
35496;SDS011;21609;49.298;6.844;2022-08-25T16:38:37;4.75;;;2.22;;
35496;SDS011;21609;49.298;6.844;2022-08-25T16:41:04;2.72;;;2.53;;